createdAt,value
2017-09-09T00:01:16.814Z,16.60
2017-09-09T00:03:45.261Z,16.60
2017-09-09T00:06:13.517Z,16.50
2017-09-09T00:08:41.766Z,16.50
2017-09-09T00:11:10.181Z,16.60
2017-09-09T00:13:38.432Z,16.60
2017-09-09T00:16:06.900Z,16.60
2017-09-09T00:18:35.308Z,16.60
2017-09-09T00:21:03.564Z,16.60
2017-09-09T00:23:31.812Z,16.60
2017-09-09T00:26:00.086Z,16.60
2017-09-09T00:28:28.359Z,16.70
2017-09-09T00:30:56.595Z,16.60
2017-09-09T00:33:24.867Z,16.60
2017-09-09T00:35:53.511Z,16.70
2017-09-09T00:38:22.132Z,16.70
2017-09-09T00:40:50.434Z,16.70
2017-09-09T00:43:18.918Z,16.70
2017-09-09T00:45:47.168Z,16.70
2017-09-09T00:48:15.440Z,16.80
2017-09-09T00:50:43.692Z,16.90
2017-09-09T00:53:12.188Z,16.90
2017-09-09T00:55:40.482Z,16.70
2017-09-09T00:58:09.112Z,16.70
2017-09-09T01:00:37.360Z,16.70
2017-09-09T01:03:05.787Z,16.60
2017-09-09T01:05:34.034Z,16.50
2017-09-09T01:08:02.279Z,16.50
2017-09-09T01:10:30.557Z,16.40
2017-09-09T01:12:58.791Z,16.40
2017-09-09T01:15:27.033Z,16.50
2017-09-09T01:17:55.292Z,16.50
2017-09-09T01:20:23.544Z,16.60
2017-09-09T01:22:52.184Z,16.60
2017-09-09T01:25:20.570Z,16.70
2017-09-09T01:27:48.820Z,16.60
2017-09-09T01:30:17.068Z,16.60
2017-09-09T01:32:45.335Z,16.70
2017-09-09T01:35:13.584Z,16.70
2017-09-09T01:37:41.827Z,16.70
2017-09-09T01:40:10.263Z,16.80
2017-09-09T01:42:38.531Z,16.70
2017-09-09T01:45:07.177Z,16.70
2017-09-09T01:47:35.489Z,16.70
2017-09-09T01:50:03.732Z,16.80
2017-09-09T01:52:31.980Z,16.70
2017-09-09T01:55:00.252Z,16.60
2017-09-09T01:57:28.525Z,16.60
2017-09-09T01:59:56.773Z,16.60
2017-09-09T02:02:25.053Z,16.60
2017-09-09T02:04:53.683Z,16.80
2017-09-09T02:07:21.961Z,16.80
2017-09-09T02:09:50.401Z,16.80
2017-09-09T02:12:18.661Z,16.80
2017-09-09T02:14:46.913Z,16.80
2017-09-09T02:17:15.188Z,16.80
2017-09-09T02:19:43.440Z,16.80
2017-09-09T02:22:11.735Z,16.70
2017-09-09T02:24:40.004Z,16.70
2017-09-09T02:27:08.240Z,16.60
2017-09-09T02:29:36.712Z,16.60
2017-09-09T02:32:05.371Z,16.70
2017-09-09T02:34:33.602Z,16.70
2017-09-09T02:37:02.253Z,16.70
2017-09-09T02:39:30.561Z,16.80
2017-09-09T02:41:58.814Z,16.90
2017-09-09T02:44:27.049Z,16.80
2017-09-09T02:46:55.491Z,16.80
2017-09-09T02:49:23.723Z,16.80
2017-09-09T02:51:51.975Z,16.70
2017-09-09T02:54:20.485Z,16.80
2017-09-09T02:56:48.724Z,16.80
2017-09-09T02:59:16.960Z,16.80
2017-09-09T03:01:45.254Z,16.90
2017-09-09T03:04:13.494Z,16.90
2017-09-09T03:06:41.736Z,16.80
2017-09-09T03:09:10.023Z,16.70
2017-09-09T03:11:38.260Z,16.80
2017-09-09T03:14:06.510Z,16.80
2017-09-09T03:16:34.834Z,16.80
2017-09-09T03:19:03.066Z,16.70
2017-09-09T03:21:31.307Z,16.70
2017-09-09T03:23:59.616Z,16.70
2017-09-09T03:26:27.866Z,16.80
2017-09-09T03:28:56.101Z,16.90
2017-09-09T03:31:24.394Z,17.00
2017-09-09T03:33:53.009Z,17.00
2017-09-09T03:36:21.563Z,17.10
2017-09-09T03:38:49.844Z,17.00
2017-09-09T03:41:18.102Z,17.00
2017-09-09T03:43:46.341Z,17.00
2017-09-09T03:46:14.617Z,17.10
2017-09-09T03:48:42.857Z,17.20
2017-09-09T03:51:11.122Z,17.20
2017-09-09T03:53:39.389Z,17.20
2017-09-09T03:56:08.030Z,17.10
2017-09-09T03:58:36.507Z,17.10
2017-09-09T04:01:04.780Z,17.10
2017-09-09T04:03:33.019Z,17.20
2017-09-09T04:06:01.274Z,17.20
2017-09-09T04:08:29.538Z,17.10
2017-09-09T04:10:57.789Z,17.00
2017-09-09T04:13:26.040Z,16.90
2017-09-09T04:15:54.293Z,17.00
2017-09-09T04:18:22.757Z,16.80
2017-09-09T04:20:51.033Z,16.80
2017-09-09T04:23:19.289Z,16.90
2017-09-09T04:25:47.546Z,16.90
2017-09-09T04:28:15.819Z,16.90
2017-09-09T04:30:44.063Z,16.80
2017-09-09T04:33:12.749Z,16.90
2017-09-09T04:35:40.996Z,16.90
2017-09-09T04:38:09.240Z,16.80
2017-09-09T04:40:37.516Z,16.90
2017-09-09T04:43:05.826Z,16.80
2017-09-09T04:45:34.061Z,16.80
2017-09-09T04:48:02.338Z,16.80
2017-09-09T04:50:30.591Z,16.80
2017-09-09T04:52:59.239Z,16.80
2017-09-09T04:55:27.528Z,16.80
2017-09-09T04:57:55.772Z,16.80
2017-09-09T05:00:24.045Z,16.90
2017-09-09T05:02:52.483Z,16.90
2017-09-09T05:05:20.735Z,16.80
2017-09-09T05:07:48.980Z,16.70
2017-09-09T05:10:17.252Z,16.70
2017-09-09T05:12:45.525Z,16.70
2017-09-09T05:15:13.800Z,16.70
2017-09-09T05:17:42.069Z,16.70
2017-09-09T05:20:10.316Z,16.70
2017-09-09T05:22:38.573Z,16.60
2017-09-09T05:25:06.870Z,16.60
2017-09-09T05:27:35.102Z,16.60
2017-09-09T05:30:03.363Z,16.60
2017-09-09T05:32:31.780Z,16.60
2017-09-09T05:35:00.039Z,16.70
2017-09-09T05:37:28.293Z,16.90
2017-09-09T05:39:56.574Z,16.90
2017-09-09T05:42:25.127Z,16.90
2017-09-09T05:44:53.631Z,16.90
2017-09-09T05:47:22.222Z,16.80
2017-09-09T05:49:50.491Z,16.80
2017-09-09T05:52:18.765Z,16.80
2017-09-09T05:54:47.027Z,16.80
2017-09-09T05:57:15.281Z,16.90
2017-09-09T05:59:43.559Z,16.60
2017-09-09T06:02:11.812Z,16.60
2017-09-09T06:04:40.059Z,16.70
2017-09-09T06:07:08.344Z,16.70
2017-09-09T06:09:36.579Z,16.70
2017-09-09T06:12:04.824Z,16.90
2017-09-09T06:14:33.131Z,17.00
2017-09-09T06:17:01.376Z,17.00
2017-09-09T06:19:29.633Z,17.10
2017-09-09T06:21:57.909Z,17.20
2017-09-09T06:24:26.150Z,17.20
2017-09-09T06:26:54.412Z,17.10
2017-09-09T06:29:22.678Z,17.10
2017-09-09T06:31:50.936Z,17.20
2017-09-09T06:34:19.174Z,17.30
2017-09-09T06:36:47.557Z,17.40
2017-09-09T06:39:16.222Z,17.30
2017-09-09T06:41:44.645Z,17.40
2017-09-09T06:44:13.091Z,17.50
2017-09-09T06:46:41.334Z,17.40
2017-09-09T06:49:09.614Z,17.40
2017-09-09T06:51:37.863Z,17.40
2017-09-09T06:54:06.102Z,17.40
2017-09-09T06:56:34.400Z,17.50
2017-09-09T06:59:02.653Z,17.70
2017-09-09T07:01:30.888Z,17.70
2017-09-09T07:03:59.319Z,17.80
2017-09-09T07:06:27.567Z,18.00
2017-09-09T07:08:55.807Z,17.90
2017-09-09T07:11:24.240Z,17.70
2017-09-09T07:13:52.474Z,17.70
2017-09-09T07:16:20.724Z,17.80
2017-09-09T07:18:49.152Z,17.80
2017-09-09T07:21:17.412Z,17.90
2017-09-09T07:23:45.659Z,18.00
2017-09-09T07:26:13.927Z,18.10
2017-09-09T07:28:42.180Z,18.00
2017-09-09T07:31:10.601Z,17.90
2017-09-09T07:33:38.930Z,17.90
2017-09-09T07:36:07.167Z,17.80
2017-09-09T07:38:35.412Z,18.00
2017-09-09T07:41:03.863Z,18.00
2017-09-09T07:43:32.323Z,18.00
2017-09-09T07:46:00.578Z,18.00
2017-09-09T07:48:28.904Z,18.00
2017-09-09T07:50:57.157Z,18.10
2017-09-09T07:53:25.425Z,18.20
2017-09-09T07:55:53.693Z,18.20
2017-09-09T07:58:22.814Z,18.10
2017-09-09T08:00:51.062Z,18.10
2017-09-09T08:03:19.781Z,18.00
2017-09-09T08:05:49.134Z,18.00
2017-09-09T08:08:17.369Z,18.00
2017-09-09T08:10:45.682Z,18.00
2017-09-09T08:13:14.915Z,18.00
2017-09-09T08:15:43.249Z,17.90
2017-09-09T08:18:14.562Z,17.90
2017-09-09T08:20:42.802Z,17.90
2017-09-09T08:23:11.918Z,17.80
2017-09-09T08:25:40.370Z,17.70
2017-09-09T08:28:08.619Z,17.70
2017-09-09T08:30:36.860Z,17.70
2017-09-09T08:33:05.144Z,17.80
2017-09-09T08:35:33.425Z,17.80
2017-09-09T08:38:01.676Z,17.60
2017-09-09T08:40:30.332Z,17.60
2017-09-09T08:42:58.595Z,17.60
2017-09-09T08:45:26.913Z,17.70
2017-09-09T08:47:55.171Z,17.70
2017-09-09T08:50:23.945Z,17.70
2017-09-09T08:52:52.208Z,17.80
2017-09-09T08:55:21.078Z,17.80
2017-09-09T08:57:49.335Z,17.80
2017-09-09T09:00:17.779Z,17.90
2017-09-09T09:02:46.016Z,17.90
2017-09-09T09:05:14.277Z,17.90
2017-09-09T09:07:42.735Z,17.80
2017-09-09T09:10:10.971Z,17.90
2017-09-09T09:12:39.220Z,17.90
2017-09-09T09:15:07.857Z,17.70
2017-09-09T09:17:36.109Z,17.80
2017-09-09T09:20:04.394Z,17.80
2017-09-09T09:22:32.634Z,17.90
2017-09-09T09:25:00.879Z,18.10
2017-09-09T09:27:29.171Z,18.20
2017-09-09T09:29:57.408Z,18.20
2017-09-09T09:32:25.879Z,18.30
2017-09-09T09:34:54.169Z,18.30
2017-09-09T09:37:22.408Z,18.30
2017-09-09T09:39:50.660Z,18.40
2017-09-09T09:42:18.974Z,18.40
2017-09-09T09:44:47.205Z,18.40
2017-09-09T09:47:15.444Z,18.40
2017-09-09T09:49:43.800Z,18.40
2017-09-09T09:52:12.088Z,18.40
2017-09-09T09:54:40.325Z,18.40
2017-09-09T09:57:08.600Z,18.40
2017-09-09T09:59:37.480Z,18.40
2017-09-09T10:02:05.849Z,18.30
2017-09-09T10:04:34.093Z,18.20
2017-09-09T10:07:02.342Z,18.20
2017-09-09T10:09:30.669Z,18.20
2017-09-09T10:11:59.119Z,18.40
2017-09-09T10:14:27.491Z,18.40
2017-09-09T10:16:55.917Z,18.40
2017-09-09T10:19:24.168Z,18.50
2017-09-09T10:21:53.202Z,18.50
2017-09-09T10:27:25.132Z,18.50
2017-09-09T10:29:53.411Z,18.50
2017-09-09T10:32:22.672Z,18.50
2017-09-09T10:34:50.920Z,18.60
2017-09-09T10:37:19.363Z,18.70
2017-09-09T10:39:48.521Z,18.70
2017-09-09T10:42:16.770Z,18.70
2017-09-09T10:44:45.499Z,18.80
2017-09-09T10:47:13.764Z,18.70
2017-09-09T10:49:41.997Z,18.70
2017-09-09T10:52:10.293Z,18.70
2017-09-09T10:54:38.673Z,18.50
2017-09-09T10:57:06.921Z,18.50
2017-09-09T10:59:35.336Z,18.50
2017-09-09T11:02:03.592Z,18.50
2017-09-09T11:04:32.094Z,18.40
2017-09-09T11:07:00.373Z,18.50
2017-09-09T11:09:28.664Z,18.60
2017-09-09T11:11:57.020Z,18.60
2017-09-09T11:14:25.318Z,18.50
2017-09-09T11:16:53.557Z,18.60
2017-09-09T11:19:21.860Z,18.60
2017-09-09T11:21:50.336Z,18.60
2017-09-09T11:24:18.584Z,18.60
2017-09-09T11:26:46.858Z,18.60
2017-09-09T11:29:15.100Z,18.60
2017-09-09T11:31:43.353Z,18.50
2017-09-09T11:34:11.633Z,18.60
2017-09-09T11:36:39.941Z,18.50
2017-09-09T11:39:08.216Z,18.40
2017-09-09T11:41:36.548Z,18.40
2017-09-09T11:44:04.828Z,18.50
2017-09-09T11:46:33.084Z,18.50
2017-09-09T11:49:01.810Z,18.50
2017-09-09T11:51:30.069Z,18.50
2017-09-09T11:53:58.374Z,18.50
2017-09-09T11:56:26.637Z,18.50
2017-09-09T11:58:54.900Z,18.40
2017-09-09T12:01:23.146Z,18.40
2017-09-09T12:03:51.454Z,18.30
2017-09-09T12:06:19.744Z,18.30
2017-09-09T12:08:48.224Z,18.30
2017-09-09T12:11:16.499Z,18.30
2017-09-09T12:13:44.854Z,18.30
2017-09-09T12:16:13.506Z,18.10
2017-09-09T12:18:41.951Z,18.10
2017-09-09T12:21:10.181Z,18.20
2017-09-09T12:23:38.849Z,18.30
2017-09-09T12:26:07.137Z,18.30
2017-09-09T12:28:35.380Z,18.20
2017-09-09T12:31:03.640Z,18.10
2017-09-09T12:33:32.081Z,18.10
2017-09-09T12:36:00.807Z,18.40
2017-09-09T12:38:29.048Z,18.30
2017-09-09T12:40:57.329Z,18.50
2017-09-09T12:43:26.116Z,18.60
2017-09-09T12:45:54.365Z,18.50
2017-09-09T12:48:22.690Z,18.60
2017-09-09T12:50:50.942Z,18.60
2017-09-09T12:53:19.189Z,18.60
2017-09-09T12:55:47.452Z,18.50
2017-09-09T12:58:15.705Z,18.40
2017-09-09T13:03:19.645Z,18.30
2017-09-09T13:05:47.910Z,18.30
2017-09-09T13:08:16.146Z,18.30
2017-09-09T13:10:45.646Z,18.20
2017-09-09T13:13:14.049Z,18.20
2017-09-09T13:15:42.618Z,18.10
2017-09-09T13:18:12.011Z,18.10
2017-09-09T13:20:40.672Z,18.10
2017-09-09T13:23:09.470Z,18.10
2017-09-09T13:25:37.743Z,18.10
2017-09-09T13:28:06.397Z,18.20
2017-09-09T13:30:34.673Z,18.20
2017-09-09T13:33:02.961Z,18.10
2017-09-09T13:35:31.205Z,18.10
2017-09-09T13:37:59.452Z,18.10
2017-09-09T13:40:27.741Z,18.10
2017-09-09T13:42:56.038Z,18.10
2017-09-09T13:45:24.285Z,18.10
2017-09-09T13:47:52.589Z,18.00
2017-09-09T13:50:20.832Z,18.10
2017-09-09T13:52:49.088Z,18.10
2017-09-09T13:55:17.763Z,18.10
2017-09-09T13:57:45.992Z,18.10
2017-09-09T14:00:14.269Z,18.10
2017-09-09T14:02:42.529Z,18.10
2017-09-09T14:05:10.801Z,18.00
2017-09-09T14:07:39.514Z,18.10
2017-09-09T14:10:08.029Z,18.20
2017-09-09T14:12:36.791Z,18.20
2017-09-09T14:15:05.501Z,18.30
2017-09-09T14:17:33.877Z,18.40
2017-09-09T14:20:02.573Z,18.40
2017-09-09T14:22:31.216Z,18.50
2017-09-09T14:24:59.897Z,18.60
2017-09-09T14:27:28.336Z,18.60
2017-09-09T14:29:56.768Z,18.60
2017-09-09T14:32:25.273Z,18.60
2017-09-09T14:34:53.543Z,18.60
2017-09-09T14:37:21.995Z,18.60
2017-09-09T14:39:50.257Z,18.60
2017-09-09T14:42:18.512Z,18.70
2017-09-09T14:44:46.926Z,18.80
2017-09-09T14:47:15.156Z,18.80
2017-09-09T14:49:43.401Z,18.90
2017-09-09T14:52:11.929Z,19.10
2017-09-09T14:54:40.203Z,19.10
2017-09-09T14:57:08.680Z,19.10
2017-09-09T14:59:37.016Z,19.20
2017-09-09T15:02:05.297Z,19.30
2017-09-09T15:04:33.567Z,19.20
2017-09-09T15:07:01.832Z,19.10
2017-09-09T15:09:30.092Z,19.20
2017-09-09T15:11:58.398Z,19.10
2017-09-09T15:14:26.647Z,19.20
2017-09-09T15:16:54.936Z,19.20
2017-09-09T15:19:23.408Z,19.20
2017-09-09T15:21:51.699Z,19.20
2017-09-09T15:24:20.095Z,19.20
2017-09-09T15:26:48.402Z,19.30
2017-09-09T15:29:16.850Z,19.30
2017-09-09T15:31:45.093Z,19.40
2017-09-09T15:34:13.384Z,19.40
2017-09-09T15:36:41.648Z,19.40
2017-09-09T15:39:09.907Z,19.30
2017-09-09T15:41:38.400Z,19.20
2017-09-09T15:44:06.656Z,19.10
2017-09-09T15:46:34.907Z,19.20
2017-09-09T15:49:03.637Z,19.10
2017-09-09T15:51:31.883Z,19.20
2017-09-09T15:54:00.517Z,19.10
2017-09-09T15:56:28.811Z,19.10
2017-09-09T15:58:57.051Z,19.10
2017-09-09T16:01:25.346Z,19.10
2017-09-09T16:03:53.575Z,19.00
2017-09-09T16:06:21.821Z,19.00
2017-09-09T16:08:50.093Z,19.00
2017-09-09T16:11:18.984Z,19.10
2017-09-09T16:13:47.247Z,19.10
2017-09-09T16:16:16.038Z,19.10
2017-09-09T16:18:44.388Z,19.00
2017-09-09T16:21:12.653Z,19.00
2017-09-09T16:23:40.924Z,18.90
2017-09-09T16:26:09.180Z,18.80
2017-09-09T16:28:37.808Z,18.80
2017-09-09T16:31:06.072Z,18.80
2017-09-09T16:33:34.308Z,18.70
2017-09-09T16:36:02.868Z,18.60
2017-09-09T16:38:31.393Z,18.50
2017-09-09T16:40:59.650Z,18.50
2017-09-09T16:43:27.916Z,18.40
2017-09-09T16:45:56.179Z,18.40
2017-09-09T16:48:24.420Z,18.30
2017-09-09T16:50:52.659Z,18.30
2017-09-09T16:53:21.298Z,18.40
2017-09-09T16:55:49.539Z,18.40
2017-09-09T16:58:17.810Z,18.50
2017-09-09T17:00:46.333Z,18.60
2017-09-09T17:03:14.592Z,18.60
2017-09-09T17:05:42.832Z,18.60
2017-09-09T17:08:11.104Z,18.70
2017-09-09T17:10:39.384Z,18.60
2017-09-09T17:13:07.652Z,18.50
2017-09-09T17:15:36.259Z,18.40
2017-09-09T17:18:04.715Z,18.50
2017-09-09T17:20:33.276Z,18.40
2017-09-09T17:23:01.533Z,18.40
2017-09-09T17:25:29.787Z,18.40
2017-09-09T17:27:58.087Z,18.50
2017-09-09T17:30:26.381Z,18.50
2017-09-09T17:32:54.658Z,18.40
2017-09-09T17:35:22.956Z,18.30
2017-09-09T17:40:25.864Z,18.20
2017-09-09T17:42:54.142Z,18.30
2017-09-09T17:45:22.411Z,18.30
2017-09-09T17:47:50.647Z,18.20
2017-09-09T17:50:18.920Z,18.10
2017-09-09T17:52:47.176Z,18.10
2017-09-09T17:55:15.424Z,18.10
2017-09-09T17:57:43.800Z,18.00
2017-09-09T18:00:12.346Z,17.90
2017-09-09T18:02:40.928Z,18.00
2017-09-09T18:05:09.277Z,18.10
2017-09-09T18:07:37.764Z,18.10
2017-09-09T18:10:06.026Z,18.10
2017-09-09T18:12:34.285Z,18.00
2017-09-09T18:15:02.568Z,18.00
2017-09-09T18:17:30.862Z,17.90
2017-09-09T18:19:59.095Z,17.90
2017-09-09T18:22:27.333Z,17.90
2017-09-09T18:24:55.609Z,17.90
2017-09-09T18:27:23.884Z,17.80
2017-09-09T18:29:52.241Z,17.90
2017-09-09T18:32:20.524Z,17.90
2017-09-09T18:34:48.766Z,17.90
2017-09-09T18:37:17.028Z,17.90
2017-09-09T18:39:45.540Z,17.90
2017-09-09T18:42:21.105Z,17.90
2017-09-09T18:44:50.120Z,17.90
2017-09-09T18:47:18.630Z,17.80
2017-09-09T18:49:47.288Z,17.80
2017-09-09T18:52:15.691Z,17.80
2017-09-09T18:54:43.945Z,17.80
2017-09-09T18:57:12.231Z,17.80
2017-09-09T18:59:40.527Z,17.80
2017-09-09T19:02:08.772Z,17.80
2017-09-09T19:04:37.036Z,17.80
2017-09-09T19:07:05.296Z,17.80
2017-09-09T19:09:33.595Z,17.70
2017-09-09T19:12:02.242Z,17.70
2017-09-09T19:14:30.527Z,17.70
2017-09-09T19:16:58.801Z,17.70
2017-09-09T19:19:27.027Z,17.60
2017-09-09T19:21:55.286Z,17.60
2017-09-09T19:24:23.823Z,17.60
2017-09-09T19:26:52.073Z,17.50
2017-09-09T19:29:20.313Z,17.60
2017-09-09T19:31:48.571Z,17.60
2017-09-09T19:34:16.836Z,17.60
2017-09-09T19:36:45.120Z,17.50
2017-09-09T19:39:13.380Z,17.60
2017-09-09T19:41:41.632Z,17.60
2017-09-09T19:44:10.177Z,17.50
2017-09-09T19:46:38.447Z,17.70
2017-09-09T19:49:06.940Z,17.80
2017-09-09T19:51:35.279Z,18.00
2017-09-09T19:54:03.899Z,18.10
2017-09-09T19:56:32.376Z,18.10
2017-09-09T19:59:00.651Z,18.20
2017-09-09T20:01:28.914Z,18.30
2017-09-09T20:03:57.307Z,18.40
2017-09-09T20:06:25.648Z,18.50
2017-09-09T20:08:53.902Z,18.40
2017-09-09T20:11:22.231Z,18.30
2017-09-09T20:13:50.518Z,18.30
2017-09-09T20:16:18.758Z,18.30
2017-09-09T20:18:47.045Z,18.30
2017-09-09T20:21:15.693Z,18.20
2017-09-09T20:23:43.980Z,18.10
2017-09-09T20:26:12.305Z,18.00
2017-09-09T20:28:40.688Z,18.00
2017-09-09T20:31:08.958Z,17.90
2017-09-09T20:33:37.247Z,17.90
2017-09-09T20:36:05.553Z,17.80
2017-09-09T20:38:34.092Z,17.80
2017-09-09T20:41:02.332Z,17.90
2017-09-09T20:43:30.788Z,17.90
2017-09-09T20:45:59.014Z,18.00
2017-09-09T20:48:27.248Z,18.00
2017-09-09T20:50:55.694Z,18.00
2017-09-09T20:53:24.075Z,18.00
2017-09-09T20:55:52.405Z,17.80
2017-09-09T20:58:20.777Z,17.80
2017-09-09T21:00:49.038Z,17.80
2017-09-09T21:03:17.533Z,17.90
2017-09-09T21:05:45.825Z,17.90
2017-09-09T21:08:14.202Z,17.80
2017-09-09T21:10:42.821Z,17.70
2017-09-09T21:13:11.558Z,17.70
2017-09-09T21:15:40.500Z,17.70
2017-09-09T21:18:08.865Z,17.80
2017-09-09T21:20:37.149Z,17.80
2017-09-09T21:23:05.413Z,17.90
2017-09-09T21:25:33.679Z,18.00
2017-09-09T21:28:01.952Z,17.90
2017-09-09T21:30:30.290Z,18.00
2017-09-09T21:32:58.746Z,18.00
2017-09-09T21:35:27.775Z,17.80
2017-09-09T21:37:56.041Z,17.80
2017-09-09T21:40:24.285Z,17.70
2017-09-09T21:42:52.571Z,17.70
2017-09-09T21:45:20.909Z,17.70
2017-09-09T21:47:49.728Z,17.70
2017-09-09T21:50:18.444Z,17.80
2017-09-09T21:52:46.694Z,17.80
2017-09-09T21:55:14.962Z,17.90
2017-09-09T21:57:43.394Z,17.80
2017-09-09T22:00:11.632Z,18.00
2017-09-09T22:02:39.980Z,18.00
2017-09-09T22:05:08.271Z,17.90
2017-09-09T22:07:36.929Z,17.80
2017-09-09T22:10:05.335Z,17.80
2017-09-09T22:12:34.844Z,17.80
2017-09-09T22:15:03.161Z,17.80
2017-09-09T22:17:31.668Z,17.70
2017-09-09T22:19:59.907Z,17.70
2017-09-09T22:22:28.155Z,17.70
2017-09-09T22:24:56.709Z,17.80
2017-09-09T22:27:25.086Z,17.60
2017-09-09T22:29:53.325Z,17.60
2017-09-09T22:32:21.590Z,17.50
2017-09-09T22:34:50.241Z,17.60
2017-09-09T22:37:18.494Z,17.60
2017-09-09T22:39:46.756Z,17.60
2017-09-09T22:42:15.004Z,17.50
2017-09-09T22:44:43.253Z,17.50
2017-09-09T22:47:11.533Z,17.40
2017-09-09T22:49:39.785Z,17.40
2017-09-09T22:52:08.021Z,17.40
2017-09-09T22:54:36.430Z,17.50
2017-09-09T22:57:04.888Z,17.40
2017-09-09T22:59:33.140Z,17.50
2017-09-09T23:02:01.429Z,17.60
2017-09-09T23:04:29.674Z,17.60
2017-09-09T23:06:57.917Z,17.60
2017-09-09T23:09:26.345Z,17.50
2017-09-09T23:11:54.584Z,17.60
2017-09-09T23:14:22.822Z,17.60
2017-09-09T23:16:51.096Z,17.60
2017-09-09T23:19:19.582Z,17.50
2017-09-09T23:21:47.833Z,17.60
2017-09-09T23:24:16.105Z,17.60
2017-09-09T23:26:44.754Z,17.60
2017-09-09T23:29:13.001Z,17.60
2017-09-09T23:31:41.426Z,17.70
2017-09-09T23:34:09.665Z,17.60
2017-09-09T23:36:37.904Z,17.60
2017-09-09T23:39:06.275Z,17.60
2017-09-09T23:41:34.511Z,17.60
2017-09-09T23:44:02.757Z,17.60
2017-09-09T23:46:31.165Z,17.60
2017-09-09T23:48:59.397Z,17.60
2017-09-09T23:51:27.646Z,17.60
2017-09-09T23:53:55.921Z,17.60
2017-09-09T23:56:24.184Z,17.60
2017-09-09T23:58:52.434Z,17.60
